KBEC/BEC METAR and TAF weather

Enter ICAO airport designator
Station Type Date Time Source
KBEC METAR 2018/10/22 16:35 UTC NOAA

KBEC 221635Z AUTO 21008KT 10SM CLR 17/07 A3012 RMK AO2 T01710069


Station Type Date Time Source
KBEC Decoded METAR 2018/10/22 16:35 UTC NOAA

Station name not available
Oct 22, 2018 - 12:35 PM EDT / 2018.10.22 1635 UTC
Wind: from the SSW (210 degrees) at 9 MPH (8 KT):0
Visibility: 10 mile(s):0
Sky conditions: clear
Temperature: 62.8 F (17.1 C)
Dew Point: 44.4 F (6.9 C)
Relative Humidity: 51%
Pressure (altimeter): 30.12 in. Hg (1019 hPa)
ob: KBEC 221635Z AUTO 21008KT 10SM CLR 17/07 A3012 RMK AO2 T01710069
cycle: 16

Station Type Date Time Source
KBEC TAF UTC NOAA

Error!


Example: see airport list